createdAt,value
2018-04-28T00:01:59.643Z,99208.48
2018-04-28T00:04:25.981Z,99206.02
2018-04-28T00:06:52.998Z,99202.56
2018-04-28T00:09:19.284Z,99206.63
2018-04-28T00:11:45.617Z,99205.67
2018-04-28T00:14:11.874Z,99209.86
2018-04-28T00:16:54.406Z,99203.02
2018-04-28T00:19:24.783Z,99198.06
2018-04-28T00:21:51.071Z,99207.24
2018-04-28T00:24:19.361Z,99204.05
2018-04-28T00:26:48.093Z,99196.11
2018-04-28T00:29:14.378Z,99198.89
2018-04-28T00:31:57.395Z,99194.06
2018-04-28T00:34:25.606Z,99190.31
2018-04-28T00:37:00.024Z,99186.66
2018-04-28T00:39:26.355Z,99194.05
2018-04-28T00:41:52.648Z,99191.78
2018-04-28T00:44:18.953Z,99190.66
2018-04-28T00:52:42.990Z,99186.81
2018-04-28T00:55:21.007Z,99182.39
2018-04-28T00:58:06.113Z,99182.54
2018-04-28T01:03:55.772Z,99187.08
2018-04-28T01:06:22.060Z,99192.73
2018-04-28T01:08:48.368Z,99192.39
2018-04-28T01:11:17.539Z,99188.86
2018-04-28T01:13:44.863Z,99192.46
2018-04-28T01:16:11.965Z,99193.13
2018-04-28T01:18:50.959Z,99194.80
2018-04-28T01:21:17.976Z,99186.98
2018-04-28T01:23:47.928Z,99189.82
2018-04-28T01:26:27.096Z,99191.53
2018-04-28T01:28:56.225Z,99192.37
2018-04-28T01:31:22.528Z,99192.00
2018-04-28T01:34:03.924Z,99194.84
2018-04-28T01:36:30.303Z,99199.61
2018-04-28T01:39:13.014Z,99196.29
2018-04-28T01:45:21.697Z,99194.34
2018-04-28T01:51:03.022Z,99199.00
2018-04-28T01:53:30.167Z,99203.47
2018-04-28T01:55:57.320Z,99208.23
2018-04-28T01:58:26.517Z,99206.96
2018-04-28T02:04:04.545Z,99209.19
2018-04-28T02:06:43.662Z,99203.69
2018-04-28T02:09:10.760Z,99208.23
2018-04-28T02:11:41.977Z,99212.65
2018-04-28T02:14:28.199Z,99208.05
2018-04-28T02:17:02.672Z,99212.81
2018-04-28T02:23:01.670Z,99214.55
2018-04-28T02:25:45.538Z,99216.89
2018-04-28T02:28:17.679Z,99218.98
2018-04-28T02:33:48.990Z,99219.11
2018-04-28T02:36:17.088Z,99216.07
2018-04-28T02:38:43.400Z,99212.56
2018-04-28T02:41:17.574Z,99211.74
2018-04-28T02:43:55.703Z,99216.45
2018-04-28T02:46:24.870Z,99218.30
2018-04-28T02:48:58.397Z,99215.93
2018-04-28T02:51:49.493Z,99221.20
2018-04-28T02:54:48.477Z,99221.34
2018-04-28T02:57:16.467Z,99222.09
2018-04-28T02:59:46.443Z,99228.33
2018-04-28T03:02:22.837Z,99228.88
2018-04-28T03:04:58.025Z,99236.21
2018-04-28T03:07:41.569Z,99232.17
2018-04-28T03:10:13.812Z,99234.05
2018-04-28T03:12:40.101Z,99227.62
2018-04-28T03:15:06.506Z,99236.14
2018-04-28T03:17:38.458Z,99240.55
2018-04-28T03:20:17.768Z,99239.87
2018-04-28T03:22:46.969Z,99241.57
2018-04-28T03:25:13.304Z,99239.65
2018-04-28T03:27:55.634Z,99240.00
2018-04-28T03:33:33.518Z,99246.53
2018-04-28T03:36:13.737Z,99249.80
2018-04-28T03:38:40.024Z,99244.83
2018-04-28T03:41:24.174Z,99247.87
2018-04-28T03:44:11.303Z,99251.45
2018-04-28T03:46:43.534Z,99254.27
2018-04-28T03:49:25.551Z,99266.30
2018-04-28T03:51:55.538Z,99266.05
2018-04-28T03:54:25.595Z,99272.28
2018-04-28T03:56:52.683Z,99273.43
2018-04-28T04:02:52.684Z,99291.06
2018-04-28T04:05:19.826Z,99293.48
2018-04-28T04:07:49.965Z,99293.69
2018-04-28T04:10:28.003Z,99297.30
2018-04-28T04:13:06.139Z,99299.22
2018-04-28T04:15:42.471Z,99308.90
2018-04-28T04:18:15.845Z,99304.30
2018-04-28T04:24:17.465Z,99300.30
2018-04-28T04:26:54.957Z,99302.84
2018-04-28T04:29:33.804Z,99310.11
2018-04-28T04:32:09.979Z,99320.94
2018-04-28T04:34:52.118Z,99317.55
2018-04-28T04:37:25.288Z,99321.16
2018-04-28T04:39:55.409Z,99323.28
2018-04-28T04:42:23.506Z,99331.53
2018-04-28T04:44:53.652Z,99333.44
2018-04-28T04:47:33.176Z,99345.06
2018-04-28T04:53:17.725Z,99350.84
2018-04-28T04:58:48.220Z,99344.27
2018-04-28T05:01:31.801Z,99354.87
2018-04-28T05:07:10.812Z,99358.68
2018-04-28T05:09:40.658Z,99359.73
2018-04-28T05:15:44.861Z,99367.59
2018-04-28T05:18:29.525Z,99370.88
2018-04-28T05:21:06.892Z,99377.91
2018-04-28T05:23:38.150Z,99374.90
2018-04-28T05:30:13.166Z,99384.31
2018-04-28T05:32:52.808Z,99389.23
2018-04-28T05:38:51.813Z,99394.61
2018-04-28T05:41:31.243Z,99407.98
2018-04-28T05:47:32.463Z,99419.21
2018-04-28T05:53:19.950Z,99420.59
2018-04-28T05:59:05.102Z,99423.58
2018-04-28T06:04:59.550Z,99431.78
2018-04-28T06:07:34.111Z,99441.38
2018-04-28T06:10:07.112Z,99446.83
2018-04-28T06:12:56.111Z,99449.51
2018-04-28T06:15:34.547Z,99451.33
2018-04-28T06:18:25.761Z,99451.69
2018-04-28T06:20:52.849Z,99464.83
2018-04-28T06:23:19.210Z,99464.53
2018-04-28T06:25:45.536Z,99489.84
2018-04-28T06:28:11.905Z,99469.48
2018-04-28T06:30:38.927Z,99467.34
2018-04-28T06:33:05.307Z,99471.30
2018-04-28T06:35:31.710Z,99478.17
2018-04-28T06:37:57.966Z,99477.73
2018-04-28T06:40:24.324Z,99482.59
2018-04-28T06:42:50.727Z,99483.05
2018-04-28T06:45:17.084Z,99487.22
2018-04-28T06:47:43.411Z,99490.74
2018-04-28T06:50:09.713Z,99488.44
2018-04-28T06:52:36.756Z,99486.55
2018-04-28T06:55:03.848Z,99497.41
2018-04-28T06:57:30.136Z,99492.38
2018-04-28T06:59:56.522Z,99494.34
2018-04-28T07:02:22.833Z,99495.23
2018-04-28T07:04:49.150Z,99499.68
2018-04-28T07:07:15.449Z,99506.36
2018-04-28T07:09:41.771Z,99503.60
2018-04-28T07:12:08.114Z,99502.89
2018-04-28T07:14:35.200Z,99505.17
2018-04-28T07:17:01.560Z,99499.61
2018-04-28T07:19:27.887Z,99508.66
2018-04-28T07:21:54.233Z,99508.41
2018-04-28T07:24:20.537Z,99513.55
2018-04-28T07:26:46.875Z,99516.28
2018-04-28T07:29:13.264Z,99506.66
2018-04-28T07:31:39.545Z,99508.09
2018-04-28T07:34:05.873Z,99496.79
2018-04-28T07:36:32.216Z,99528.22
2018-04-28T07:38:58.532Z,99531.22
2018-04-28T07:41:24.939Z,99509.30
2018-04-28T07:43:51.275Z,99531.38
2018-04-28T07:46:17.601Z,99528.24
2018-04-28T07:48:43.953Z,99526.88
2018-04-28T07:51:10.348Z,99527.03
2018-04-28T07:53:36.660Z,99529.45
2018-04-28T07:56:03.778Z,99536.17
2018-04-28T07:58:31.144Z,99536.85
2018-04-28T08:00:57.477Z,99543.92
2018-04-28T08:03:23.809Z,99539.23
2018-04-28T08:05:50.109Z,99540.14
2018-04-28T08:08:16.425Z,99529.22
2018-04-28T08:10:42.750Z,99525.88
2018-04-28T08:13:09.140Z,99535.75
2018-04-28T08:15:36.902Z,99534.55
2018-04-28T08:18:03.164Z,99545.33
2018-04-28T08:20:30.215Z,99547.67
2018-04-28T08:22:56.515Z,99549.22
2018-04-28T08:25:22.830Z,99546.93
2018-04-28T08:27:49.117Z,99559.41
2018-04-28T08:30:15.494Z,99557.02
2018-04-28T08:32:41.798Z,99559.67
2018-04-28T08:35:08.098Z,99559.55
2018-04-28T08:37:35.139Z,99564.44
2018-04-28T08:40:02.236Z,99552.70
2018-04-28T08:42:28.585Z,99568.36
2018-04-28T08:44:54.947Z,99552.34
2018-04-28T08:47:22.088Z,99555.65
2018-04-28T08:49:49.141Z,99569.55
2018-04-28T08:52:16.252Z,99576.08
2018-04-28T08:54:42.558Z,99576.45
2018-04-28T08:57:08.907Z,99565.27
2018-04-28T08:59:54.078Z,99565.18
2018-04-28T09:02:20.410Z,99561.55
2018-04-28T09:04:46.744Z,99563.85
2018-04-28T09:07:39.396Z,99566.40
2018-04-28T09:10:05.735Z,99553.56
2018-04-28T09:12:32.044Z,99553.62
2018-04-28T09:14:58.390Z,99557.94
2018-04-28T09:17:24.684Z,99558.63
2018-04-28T09:19:50.976Z,99563.14
2018-04-28T09:22:17.253Z,99556.63
2018-04-28T09:24:43.601Z,99567.98
2018-04-28T09:27:09.899Z,99570.80
2018-04-28T09:29:36.952Z,99557.05
2018-04-28T09:32:03.219Z,99565.14
2018-04-28T09:34:29.538Z,99557.54
2018-04-28T09:36:55.841Z,99554.82
2018-04-28T09:39:22.896Z,99560.86
2018-04-28T09:41:49.217Z,99563.62
2018-04-28T09:44:16.234Z,99560.50
2018-04-28T09:46:42.601Z,99560.81
2018-04-28T09:49:09.643Z,99567.55
2018-04-28T09:51:36.728Z,99563.24
2018-04-28T09:54:03.051Z,99562.66
2018-04-28T09:56:29.370Z,99574.09
2018-04-28T09:58:55.753Z,99567.81
2018-04-28T10:01:22.014Z,99569.30
2018-04-28T10:03:53.897Z,99571.57
2018-04-28T10:06:20.218Z,99561.55
2018-04-28T10:08:46.498Z,99553.23
2018-04-28T10:11:12.797Z,99551.33
2018-04-28T10:13:39.157Z,99546.63
2018-04-28T10:16:05.425Z,99549.20
2018-04-28T10:18:32.498Z,99543.51
2018-04-28T10:20:58.786Z,99553.88
2018-04-28T10:23:25.128Z,99551.23
2018-04-28T10:25:51.465Z,99542.45
2018-04-28T10:28:18.545Z,99541.22
2018-04-28T10:30:44.885Z,99544.77
2018-04-28T10:33:11.197Z,99536.99
2018-04-28T10:35:37.536Z,99531.77
2018-04-28T10:38:03.868Z,99544.39
2018-04-28T10:40:30.194Z,99535.03
2018-04-28T10:42:56.529Z,99529.49
2018-04-28T10:45:22.864Z,99532.62
2018-04-28T10:47:49.227Z,99539.67
2018-04-28T10:50:15.541Z,99530.92
2018-04-28T10:52:41.816Z,99536.80
2018-04-28T10:55:08.150Z,99529.91
2018-04-28T10:57:34.426Z,99531.34
2018-04-28T11:00:00.795Z,99526.07
2018-04-28T11:02:27.874Z,99528.56
2018-04-28T11:04:54.936Z,99515.09
2018-04-28T11:07:21.233Z,99513.52
2018-04-28T11:09:47.505Z,99506.77
2018-04-28T11:12:13.835Z,99508.80
2018-04-28T11:14:40.129Z,99498.86
2018-04-28T11:17:06.606Z,99499.39
2018-04-28T11:19:32.891Z,99515.77
2018-04-28T11:21:59.158Z,99507.70
2018-04-28T11:24:25.516Z,99498.36
2018-04-28T11:26:51.810Z,99495.47
2018-04-28T11:29:18.125Z,99501.92
2018-04-28T11:31:45.161Z,99496.88
2018-04-28T11:34:12.209Z,99501.48
2018-04-28T11:36:38.483Z,99496.89
2018-04-28T11:39:04.810Z,99495.35
2018-04-28T11:41:31.069Z,99499.73
2018-04-28T11:43:57.368Z,99489.22
2018-04-28T11:46:23.702Z,99493.41
2018-04-28T11:48:49.957Z,99494.11
2018-04-28T11:51:16.235Z,99491.09
2018-04-28T11:53:43.291Z,99495.09
2018-04-28T11:56:10.354Z,99484.48
2018-04-28T11:58:36.675Z,99494.77
2018-04-28T12:01:03.031Z,99479.30
2018-04-28T12:03:29.405Z,99486.36
2018-04-28T12:05:55.741Z,99477.22
2018-04-28T12:08:22.135Z,99480.86
2018-04-28T12:10:48.429Z,99485.02
2018-04-28T12:13:15.470Z,99474.73
2018-04-28T12:15:42.522Z,99467.67
2018-04-28T12:18:09.568Z,99473.98
2018-04-28T12:20:36.617Z,99467.87
2018-04-28T12:23:03.702Z,99467.61
2018-04-28T12:25:30.197Z,99463.88
2018-04-28T12:27:57.211Z,99461.19
2018-04-28T12:30:23.575Z,99467.52
2018-04-28T12:32:50.594Z,99460.16
2018-04-28T12:35:16.900Z,99455.43
2018-04-28T12:37:43.185Z,99453.13
2018-04-28T12:40:10.249Z,99449.20
2018-04-28T12:42:36.608Z,99439.38
2018-04-28T12:45:02.999Z,99438.59
2018-04-28T12:47:30.027Z,99434.66
2018-04-28T12:49:56.373Z,99437.56
2018-04-28T12:52:23.414Z,99441.13
2018-04-28T12:54:49.744Z,99439.81
2018-04-28T12:57:16.048Z,99429.22
2018-04-28T12:59:42.343Z,99433.67
2018-04-28T13:02:08.634Z,99430.80
2018-04-28T13:04:34.947Z,99436.96
2018-04-28T13:07:01.245Z,99438.53
2018-04-28T13:09:27.738Z,99438.06
2018-04-28T13:11:54.776Z,99438.06
2018-04-28T13:14:21.444Z,99429.26
2018-04-28T13:16:47.746Z,99429.59
2018-04-28T13:19:14.796Z,99435.75
2018-04-28T13:21:41.833Z,99423.36
2018-04-28T13:24:08.151Z,99410.36
2018-04-28T13:26:34.444Z,99416.00
2018-04-28T13:29:00.719Z,99413.67
2018-04-28T13:31:27.033Z,99419.77
2018-04-28T13:33:53.339Z,99423.11
2018-04-28T13:36:19.625Z,99423.97
2018-04-28T13:38:45.999Z,99425.16
2018-04-28T13:41:12.327Z,99418.86
2018-04-28T13:43:39.372Z,99414.77
2018-04-28T13:46:05.729Z,99415.00
2018-04-28T13:48:32.064Z,99416.03
2018-04-28T13:50:58.566Z,99419.75
2018-04-28T13:53:24.937Z,99412.88
2018-04-28T13:55:51.207Z,99413.70
2018-04-28T13:58:18.246Z,99417.73
2018-04-28T14:00:44.542Z,99425.16
2018-04-28T14:03:10.857Z,99431.42
2018-04-28T14:05:37.154Z,99421.03
2018-04-28T14:08:03.451Z,99425.49
2018-04-28T14:10:29.766Z,99420.00
2018-04-28T14:12:56.141Z,99422.55
2018-04-28T14:15:22.510Z,99421.18
2018-04-28T14:17:48.824Z,99414.08
2018-04-28T14:20:15.254Z,99416.75
2018-04-28T14:22:41.571Z,99409.50
2018-04-28T14:25:08.672Z,99409.67
2018-04-28T14:27:35.006Z,99417.58
2018-04-28T14:30:01.374Z,99419.50
2018-04-28T14:32:28.134Z,99418.96
2018-04-28T14:34:54.509Z,99426.55
2018-04-28T14:37:20.858Z,99416.09
2018-04-28T14:39:47.204Z,99409.96
2018-04-28T14:42:13.551Z,99416.06
2018-04-28T14:44:39.832Z,99412.30
2018-04-28T14:47:06.934Z,99408.95
2018-04-28T14:49:33.952Z,99402.91
2018-04-28T14:52:00.255Z,99409.52
2018-04-28T14:54:26.530Z,99404.23
2018-04-28T14:56:53.546Z,99400.08
2018-04-28T14:59:19.803Z,99406.92
2018-04-28T15:01:46.065Z,99408.73
2018-04-28T15:04:12.348Z,99402.03
2018-04-28T15:06:39.540Z,99411.33
2018-04-28T15:09:05.902Z,99408.75
2018-04-28T15:11:32.282Z,99410.91
2018-04-28T15:13:58.611Z,99414.78
2018-04-28T15:16:25.762Z,99411.27
2018-04-28T15:18:52.119Z,99420.72
2018-04-28T15:21:18.474Z,99420.25
2018-04-28T15:23:44.839Z,99423.45
2018-04-28T15:26:11.152Z,99421.34
2018-04-28T15:28:37.492Z,99414.04
2018-04-28T15:31:04.614Z,99417.84
2018-04-28T15:33:30.943Z,99416.84
2018-04-28T15:35:57.190Z,99408.08
2018-04-28T15:38:23.517Z,99402.52
2018-04-28T15:40:49.818Z,99414.07
2018-04-28T15:43:16.130Z,99403.74
2018-04-28T15:45:42.474Z,99410.72
2018-04-28T15:48:08.777Z,99421.84
2018-04-28T15:50:35.160Z,99419.58
2018-04-28T15:53:01.505Z,99420.67
2018-04-28T15:55:27.798Z,99422.45
2018-04-28T15:57:54.100Z,99428.70
2018-04-28T16:00:21.332Z,99426.70
2018-04-28T16:02:47.648Z,99428.14
2018-04-28T16:05:14.007Z,99422.05
2018-04-28T16:07:40.297Z,99419.23
2018-04-28T16:10:06.595Z,99405.75
2018-04-28T16:12:33.595Z,99413.41
2018-04-28T16:14:59.910Z,99396.16
2018-04-28T16:17:26.251Z,99403.67
2018-04-28T16:19:52.562Z,99410.44
2018-04-28T16:22:18.836Z,99412.38
2018-04-28T16:24:45.565Z,99409.11
2018-04-28T16:27:11.901Z,99406.66
2018-04-28T16:29:38.371Z,99410.83
2018-04-28T16:32:05.427Z,99402.40
2018-04-28T16:34:31.751Z,99401.97
2018-04-28T16:36:58.954Z,99398.55
2018-04-28T16:39:25.311Z,99398.05
2018-04-28T16:41:51.602Z,99403.55
2018-04-28T16:44:17.838Z,99399.63
2018-04-28T16:46:44.151Z,99392.93
2018-04-28T16:49:10.763Z,99386.74
2018-04-28T16:51:37.837Z,99388.72
2018-04-28T16:54:04.108Z,99389.72
2018-04-28T16:56:30.418Z,99382.18
2018-04-28T16:58:56.763Z,99383.38
2018-04-28T17:01:24.056Z,99375.52
2018-04-28T17:03:51.098Z,99383.42
2018-04-28T17:06:18.995Z,99372.25
2018-04-28T17:08:45.289Z,99377.98
2018-04-28T17:11:11.595Z,99375.33
2018-04-28T17:13:38.203Z,99372.55
2018-04-28T17:16:04.629Z,99377.96
2018-04-28T17:18:31.101Z,99382.22
2018-04-28T17:20:57.406Z,99378.63
2018-04-28T17:23:23.788Z,99380.17
2018-04-28T17:25:50.063Z,99382.02
2018-04-28T17:28:16.412Z,99381.83
2018-04-28T17:30:42.709Z,99381.00
2018-04-28T17:33:09.041Z,99380.12
2018-04-28T17:35:35.338Z,99380.58
2018-04-28T17:38:01.622Z,99383.72
2018-04-28T17:40:27.940Z,99382.11
2018-04-28T17:42:54.894Z,99389.39
2018-04-28T17:45:21.207Z,99387.67
2018-04-28T17:47:47.531Z,99389.55
2018-04-28T17:50:14.551Z,99379.67
2018-04-28T17:52:40.839Z,99384.72
2018-04-28T17:55:07.148Z,99385.83
2018-04-28T17:57:33.438Z,99383.20
2018-04-28T17:59:59.910Z,99383.66
2018-04-28T18:02:26.247Z,99375.66
2018-04-28T18:04:52.911Z,99373.59
2018-04-28T18:07:19.359Z,99379.84
2018-04-28T18:09:46.457Z,99385.81
2018-04-28T18:12:13.467Z,99388.48
2018-04-28T18:14:39.920Z,99388.59
2018-04-28T18:17:06.272Z,99393.39
2018-04-28T18:19:33.378Z,99395.47
2018-04-28T18:21:59.711Z,99389.39
2018-04-28T18:24:26.039Z,99392.86
2018-04-28T18:26:52.339Z,99397.86
2018-04-28T18:29:18.643Z,99394.62
2018-04-28T18:31:45.656Z,99398.11
2018-04-28T18:34:11.966Z,99397.52
2018-04-28T18:36:38.346Z,99393.17
2018-04-28T18:39:05.664Z,99400.06
2018-04-28T18:41:31.956Z,99395.62
2018-04-28T18:43:58.275Z,99404.92
2018-04-28T18:46:24.692Z,99403.74
2018-04-28T18:48:50.963Z,99400.63
2018-04-28T18:51:17.308Z,99398.20
2018-04-28T18:53:44.354Z,99398.30
2018-04-28T18:56:10.734Z,99401.43
2018-04-28T18:58:37.775Z,99407.13
2018-04-28T19:01:04.099Z,99415.53
2018-04-28T19:03:30.554Z,99411.50
2018-04-28T19:05:57.632Z,99414.52
2018-04-28T19:08:23.965Z,99413.55
2018-04-28T19:10:50.291Z,99415.93
2018-04-28T19:13:16.642Z,99414.64
2018-04-28T19:15:43.122Z,99414.80
2018-04-28T19:18:09.490Z,99416.76
2018-04-28T19:20:35.876Z,99412.34
2018-04-28T19:23:02.333Z,99415.41
2018-04-28T19:25:29.389Z,99414.17
2018-04-28T19:27:55.704Z,99417.58
2018-04-28T19:30:22.909Z,99415.68
2018-04-28T19:32:49.252Z,99421.17
2018-04-28T19:35:15.560Z,99419.94
2018-04-28T19:37:41.873Z,99427.19
2018-04-28T19:40:08.312Z,99431.52
2018-04-28T19:42:34.626Z,99437.86
2018-04-28T19:45:02.794Z,99432.95
2018-04-28T19:47:29.141Z,99437.13
2018-04-28T19:49:55.510Z,99436.58
2018-04-28T19:52:21.890Z,99434.65
2018-04-28T19:54:48.977Z,99438.05
2018-04-28T19:57:15.299Z,99436.33
2018-04-28T19:59:41.656Z,99436.77
2018-04-28T20:02:07.967Z,99441.45
2018-04-28T20:04:34.281Z,99438.02
2018-04-28T20:07:00.633Z,99427.11
2018-04-28T20:09:27.058Z,99425.97
2018-04-28T20:11:53.364Z,99428.44
2018-04-28T20:14:19.720Z,99424.70
2018-04-28T20:16:46.097Z,99423.36
2018-04-28T20:19:12.517Z,99425.05
2018-04-28T20:21:38.871Z,99416.83
2018-04-28T20:24:23.843Z,99413.24
2018-04-28T20:26:50.986Z,99417.89
2018-04-28T20:29:17.275Z,99407.49
2018-04-28T20:31:43.571Z,99412.55
2018-04-28T20:34:10.632Z,99411.59
2018-04-28T20:36:36.994Z,99407.75
2018-04-28T20:39:03.314Z,99407.83
2018-04-28T20:41:29.650Z,99408.44
2018-04-28T20:43:55.934Z,99417.38
2018-04-28T20:46:22.982Z,99414.37
2018-04-28T20:48:50.055Z,99412.33
2018-04-28T20:51:16.416Z,99418.73
2018-04-28T20:53:42.696Z,99417.78
2018-04-28T20:56:09.833Z,99420.32
2018-04-28T20:58:36.116Z,99429.33
2018-04-28T21:01:02.865Z,99424.31
2018-04-28T21:03:29.881Z,99422.31
2018-04-28T21:05:56.172Z,99422.98
2018-04-28T21:08:22.607Z,99430.81
2018-04-28T21:10:48.891Z,99424.39
2018-04-28T21:13:15.163Z,99417.55
2018-04-28T21:15:41.557Z,99424.95
2018-04-28T21:18:07.859Z,99422.33
2018-04-28T21:20:34.879Z,99429.37
2018-04-28T21:23:01.262Z,99439.01
2018-04-28T21:25:27.797Z,99435.83
2018-04-28T21:27:54.099Z,99429.87
2018-04-28T21:30:21.120Z,99426.48
2018-04-28T21:32:47.368Z,99424.12
2018-04-28T21:35:14.430Z,99423.70
2018-04-28T21:37:41.584Z,99424.91
2018-04-28T21:40:07.870Z,99421.80
2018-04-28T21:42:34.177Z,99422.98
2018-04-28T21:45:00.495Z,99428.94
2018-04-28T21:47:27.557Z,99423.34
2018-04-28T21:49:53.887Z,99422.01
2018-04-28T21:52:20.216Z,99412.50
2018-04-28T21:54:46.505Z,99415.39
2018-04-28T21:57:13.522Z,99410.98
2018-04-28T21:59:39.868Z,99397.83
2018-04-28T22:02:06.189Z,99406.95
2018-04-28T22:04:32.507Z,99407.28
2018-04-28T22:06:59.524Z,99409.25
2018-04-28T22:09:25.838Z,99404.30
2018-04-28T22:11:52.181Z,99409.86
2018-04-28T22:14:18.458Z,99411.77
2018-04-28T22:16:44.791Z,99420.20
2018-04-28T22:19:12.052Z,99412.57
2018-04-28T22:21:38.397Z,99414.47
2018-04-28T22:24:05.437Z,99420.61
2018-04-28T22:26:31.744Z,99420.52
2018-04-28T22:28:58.027Z,99419.12
2018-04-28T22:31:24.338Z,99417.48
2018-04-28T22:33:51.368Z,99418.06
2018-04-28T22:36:17.674Z,99416.57
2018-04-28T22:38:43.958Z,99420.69
2018-04-28T22:41:10.246Z,99419.20
2018-04-28T22:43:36.515Z,99415.66
2018-04-28T22:46:03.613Z,99419.95
2018-04-28T22:48:29.895Z,99427.40
2018-04-28T22:50:56.902Z,99423.66
2018-04-28T22:53:23.189Z,99417.40
2018-04-28T22:55:49.505Z,99423.59
2018-04-28T22:58:16.517Z,99432.76
2018-04-28T23:00:42.839Z,99421.67
2018-04-28T23:03:09.169Z,99427.56
2018-04-28T23:05:35.473Z,99428.70
2018-04-28T23:08:01.773Z,99427.80
2018-04-28T23:10:28.830Z,99422.66
2018-04-28T23:12:55.114Z,99427.62
2018-04-28T23:15:22.131Z,99424.80
2018-04-28T23:17:48.444Z,99423.38
2018-04-28T23:20:14.731Z,99417.93
2018-04-28T23:22:41.060Z,99420.24
2018-04-28T23:25:07.327Z,99418.78
2018-04-28T23:27:33.667Z,99418.18
2018-04-28T23:29:59.958Z,99416.41
2018-04-28T23:32:26.306Z,99421.36
2018-04-28T23:34:53.354Z,99420.86
2018-04-28T23:37:20.382Z,99416.03
2018-04-28T23:39:46.639Z,99415.66
2018-04-28T23:42:12.919Z,99397.05
2018-04-28T23:44:39.203Z,99396.81
2018-04-28T23:47:05.485Z,99394.17
2018-04-28T23:49:31.816Z,99395.08
2018-04-28T23:51:58.129Z,99396.52
2018-04-28T23:54:24.450Z,99394.30
2018-04-28T23:56:50.789Z,99396.05
2018-04-28T23:59:17.128Z,99391.34
